createdAt,value
2022-07-31T00:03:09.903Z,7.43
2022-07-31T00:08:11.811Z,8.48
2022-07-31T00:13:13.631Z,7.10
2022-07-31T00:18:15.878Z,8.38
2022-07-31T00:23:18.953Z,8.80
2022-07-31T00:28:20.987Z,7.47
2022-07-31T00:33:22.903Z,8.02
2022-07-31T00:38:26.784Z,7.95
2022-07-31T00:43:30.814Z,7.50
2022-07-31T00:48:33.888Z,7.10
2022-07-31T00:53:36.255Z,8.48
2022-07-31T00:58:38.073Z,7.80
2022-07-31T01:03:40.032Z,7.30
2022-07-31T01:08:41.864Z,7.28
2022-07-31T01:13:58.016Z,7.18
2022-07-31T01:19:05.037Z,6.88
2022-07-31T01:24:52.416Z,6.82
2022-07-31T01:29:57.113Z,6.47
2022-07-31T01:35:06.497Z,7.28
2022-07-31T01:40:22.939Z,7.35
2022-07-31T01:45:27.456Z,7.05
2022-07-31T01:50:43.489Z,6.93
2022-07-31T01:56:03.746Z,6.70
2022-07-31T02:01:08.957Z,6.35
2022-07-31T02:06:18.445Z,6.30
2022-07-31T02:11:20.864Z,6.82
2022-07-31T02:16:23.943Z,7.68
2022-07-31T02:21:26.550Z,7.50
2022-07-31T02:26:31.963Z,8.52
2022-07-31T02:31:35.923Z,8.50
2022-07-31T02:36:38.104Z,10.77
2022-07-31T02:41:41.905Z,10.65
2022-07-31T02:46:44.846Z,11.63
2022-07-31T02:51:46.856Z,11.55
2022-07-31T02:56:49.287Z,11.25
2022-07-31T03:01:51.129Z,11.43
2022-07-31T03:06:53.295Z,11.65
2022-07-31T03:11:55.142Z,10.88
2022-07-31T03:16:58.235Z,12.63
2022-07-31T03:22:00.981Z,10.35
2022-07-31T03:27:03.826Z,12.77
2022-07-31T03:32:06.580Z,10.60
2022-07-31T03:37:08.583Z,26.27
2022-07-31T03:42:12.932Z,33.65
2022-07-31T03:47:20.540Z,42.10
2022-07-31T03:52:23.330Z,32.25
2022-07-31T03:57:28.764Z,29.27
2022-07-31T04:02:33.096Z,17.25
2022-07-31T04:07:34.911Z,11.23
2022-07-31T04:12:36.726Z,7.82
2022-07-31T04:17:38.650Z,6.65
2022-07-31T04:22:41.282Z,6.18
2022-07-31T04:27:47.945Z,5.35
2022-07-31T04:32:50.628Z,7.15
2022-07-31T04:37:52.456Z,6.13
2022-07-31T04:42:55.042Z,6.03
2022-07-31T04:47:56.952Z,5.55
2022-07-31T04:52:58.735Z,4.72
2022-07-31T04:58:00.504Z,5.25
2022-07-31T05:03:02.343Z,4.10
2022-07-31T05:08:04.129Z,3.67
2022-07-31T05:13:05.903Z,3.90
2022-07-31T05:18:07.765Z,5.22
2022-07-31T05:23:09.542Z,4.32
2022-07-31T05:28:11.571Z,3.85
2022-07-31T05:33:14.094Z,3.90
2022-07-31T05:38:18.447Z,3.10
2022-07-31T05:43:20.551Z,3.00
2022-07-31T05:48:22.678Z,3.10
2022-07-31T05:53:24.531Z,2.88
2022-07-31T05:58:26.400Z,2.88
2022-07-31T06:03:28.656Z,2.83
2022-07-31T06:08:31.389Z,3.03
2022-07-31T06:13:33.364Z,3.38
2022-07-31T06:18:36.059Z,3.13
2022-07-31T06:23:37.837Z,3.67
2022-07-31T06:28:47.672Z,2.30
2022-07-31T06:33:51.212Z,1.88
2022-07-31T06:38:55.140Z,2.13
2022-07-31T06:43:56.882Z,1.88
2022-07-31T06:48:58.715Z,1.73
2022-07-31T06:54:01.942Z,1.60
2022-07-31T06:59:05.604Z,2.47
2022-07-31T07:04:07.399Z,1.20
2022-07-31T07:09:09.595Z,0.95
2022-07-31T07:14:11.465Z,1.20
2022-07-31T07:19:13.311Z,0.95
2022-07-31T07:24:15.180Z,1.00
2022-07-31T07:29:16.992Z,1.00
2022-07-31T07:34:18.773Z,1.00
2022-07-31T07:39:20.712Z,1.85
2022-07-31T07:44:22.529Z,1.08
2022-07-31T07:49:24.387Z,1.20
2022-07-31T07:54:26.187Z,0.90
2022-07-31T07:59:27.942Z,0.85
2022-07-31T08:04:29.795Z,1.08
2022-07-31T08:09:33.414Z,1.08
2022-07-31T08:14:35.562Z,2.40
2022-07-31T08:19:37.469Z,1.17
2022-07-31T08:24:41.315Z,0.90
2022-07-31T08:29:43.406Z,1.20
2022-07-31T08:34:45.644Z,0.90
2022-07-31T08:39:49.228Z,1.10
2022-07-31T08:44:51.894Z,5.00
2022-07-31T08:49:54.868Z,0.90
2022-07-31T08:54:57.659Z,1.20
2022-07-31T08:59:59.617Z,0.90
2022-07-31T09:05:01.397Z,1.38
2022-07-31T09:10:08.796Z,0.90
2022-07-31T09:15:21.810Z,1.00
2022-07-31T09:20:27.743Z,1.25
2022-07-31T09:25:29.678Z,0.90
2022-07-31T09:30:32.080Z,0.90
2022-07-31T09:35:39.910Z,1.40
2022-07-31T09:40:57.182Z,0.82
2022-07-31T09:46:01.275Z,0.80
2022-07-31T09:51:07.050Z,1.30
2022-07-31T09:56:12.552Z,0.85
2022-07-31T10:01:14.720Z,0.90
2022-07-31T10:06:18.225Z,1.30
2022-07-31T10:11:22.140Z,1.10
2022-07-31T10:16:27.346Z,0.80
2022-07-31T10:21:37.771Z,0.80
2022-07-31T10:26:59.709Z,3.20
2022-07-31T10:32:01.996Z,0.90
2022-07-31T10:37:11.727Z,2.88
2022-07-31T10:42:37.666Z,1.00
2022-07-31T10:47:40.012Z,3.33
2022-07-31T10:52:51.072Z,0.93
2022-07-31T10:57:57.270Z,1.40
2022-07-31T11:02:59.466Z,0.90
2022-07-31T11:08:07.702Z,0.88
2022-07-31T11:18:24.323Z,1.02
2022-07-31T11:23:30.860Z,1.00
2022-07-31T11:28:33.700Z,0.93
2022-07-31T11:33:43.629Z,0.90
2022-07-31T11:38:49.871Z,1.17
2022-07-31T11:43:54.123Z,1.10
2022-07-31T11:48:57.170Z,1.25
2022-07-31T11:54:00.081Z,0.90
2022-07-31T11:59:01.909Z,1.02
2022-07-31T12:04:06.289Z,1.10
2022-07-31T12:10:00.953Z,1.00
2022-07-31T12:14:36.292Z,1.98
2022-07-31T12:19:38.876Z,1.00
2022-07-31T12:24:40.856Z,1.10
2022-07-31T12:29:43.040Z,0.90
2022-07-31T12:34:45.523Z,1.15
2022-07-31T12:39:53.982Z,3.53
2022-07-31T12:45:18.115Z,1.00
2022-07-31T12:50:23.779Z,1.25
2022-07-31T12:55:26.166Z,1.42
2022-07-31T13:00:28.949Z,4.80
2022-07-31T13:05:30.974Z,1.00
2022-07-31T13:10:32.851Z,2.53
2022-07-31T13:15:34.860Z,2.17
2022-07-31T13:20:36.662Z,1.85
2022-07-31T13:25:38.480Z,3.00
2022-07-31T13:30:40.252Z,1.40
2022-07-31T13:35:42.097Z,2.78
2022-07-31T13:41:02.509Z,1.70
2022-07-31T13:46:04.380Z,1.25
2022-07-31T13:51:06.477Z,2.63
2022-07-31T13:56:08.279Z,1.90
2022-07-31T14:01:10.196Z,2.55
2022-07-31T14:06:12.208Z,1.88
2022-07-31T14:11:15.234Z,1.70
2022-07-31T14:16:17.246Z,1.42
2022-07-31T14:21:19.307Z,1.67
2022-07-31T14:26:21.148Z,1.48
2022-07-31T14:31:23.099Z,2.10
2022-07-31T14:36:24.955Z,2.40
2022-07-31T14:41:26.811Z,2.70
2022-07-31T14:46:28.723Z,2.63
2022-07-31T14:51:30.475Z,3.35
2022-07-31T14:56:59.644Z,3.50
2022-07-31T15:01:54.123Z,5.90
2022-07-31T15:07:07.693Z,3.70
2022-07-31T15:12:19.339Z,2.60
2022-07-31T15:17:21.117Z,2.33
2022-07-31T15:22:23.007Z,2.22
2022-07-31T15:27:25.042Z,1.95
2022-07-31T15:32:27.071Z,2.20
2022-07-31T15:37:30.221Z,1.92
2022-07-31T15:42:32.593Z,3.10
2022-07-31T15:47:34.491Z,3.13
2022-07-31T15:52:36.719Z,3.95
2022-07-31T15:57:38.993Z,3.78
2022-07-31T16:02:42.551Z,3.25
2022-07-31T16:08:28.876Z,2.17
2022-07-31T16:13:06.850Z,2.53
2022-07-31T16:18:09.199Z,2.67
2022-07-31T16:23:20.354Z,2.85
2022-07-31T16:28:22.144Z,2.85
2022-07-31T16:33:23.930Z,2.50
2022-07-31T16:38:25.807Z,3.05
2022-07-31T16:43:47.533Z,2.80
2022-07-31T16:48:49.397Z,3.38
2022-07-31T16:54:12.732Z,3.90
2022-07-31T16:59:12.988Z,3.97
2022-07-31T17:04:15.008Z,3.35
2022-07-31T17:09:18.513Z,2.20
2022-07-31T17:14:25.409Z,2.63
2022-07-31T17:19:36.153Z,1.98
2022-07-31T17:24:50.142Z,1.90
2022-07-31T17:29:52.025Z,2.50
2022-07-31T17:34:53.899Z,2.10
2022-07-31T17:39:57.735Z,2.20
2022-07-31T17:45:01.939Z,1.73
2022-07-31T17:50:04.463Z,4.47
2022-07-31T17:55:08.011Z,2.95
2022-07-31T18:00:10.399Z,3.40
2022-07-31T18:05:12.204Z,2.97
2022-07-31T18:10:14.409Z,2.50
2022-07-31T18:15:16.708Z,2.60
2022-07-31T18:20:24.686Z,3.40
2022-07-31T18:25:26.483Z,3.53
2022-07-31T18:30:30.754Z,2.97
2022-07-31T18:35:35.588Z,3.78
2022-07-31T18:40:38.136Z,3.28
2022-07-31T18:45:41.529Z,3.38
2022-07-31T18:51:01.760Z,2.53
2022-07-31T18:56:05.697Z,2.50
2022-07-31T19:01:07.669Z,3.05
2022-07-31T19:06:09.497Z,3.22
2022-07-31T19:11:12.294Z,3.33
2022-07-31T19:16:15.842Z,3.70
2022-07-31T19:21:41.227Z,3.28
2022-07-31T19:26:41.675Z,3.17
2022-07-31T19:31:43.785Z,3.60
2022-07-31T19:36:46.380Z,3.88
2022-07-31T19:42:11.305Z,3.90
2022-07-31T19:47:11.964Z,2.80
2022-07-31T19:52:13.812Z,3.20
2022-07-31T19:57:15.573Z,2.58
2022-07-31T20:02:17.340Z,3.03
2022-07-31T20:07:19.117Z,2.10
2022-07-31T20:12:21.409Z,2.30
2022-07-31T20:17:23.283Z,2.35
2022-07-31T20:22:25.046Z,2.50
2022-07-31T20:27:26.859Z,2.38
2022-07-31T20:32:28.693Z,2.00
2022-07-31T20:37:30.866Z,2.67
2022-07-31T20:42:32.700Z,2.40
2022-07-31T20:47:35.676Z,2.28
2022-07-31T20:52:37.737Z,2.75
2022-07-31T20:57:40.300Z,2.65
2022-07-31T21:02:42.220Z,2.75
2022-07-31T21:07:44.043Z,3.20
2022-07-31T21:12:45.800Z,2.75
2022-07-31T21:17:47.741Z,3.33
2022-07-31T21:22:49.535Z,3.00
2022-07-31T21:27:51.652Z,3.13
2022-07-31T21:32:54.172Z,2.45
2022-07-31T21:37:57.270Z,2.90
2022-07-31T21:43:00.340Z,2.42
2022-07-31T21:48:13.708Z,2.47
2022-07-31T21:53:15.545Z,2.90
2022-07-31T21:58:17.710Z,2.83
2022-07-31T22:03:19.570Z,2.97
2022-07-31T22:08:21.596Z,3.17
2022-07-31T22:13:23.493Z,3.17
2022-07-31T22:18:26.216Z,2.75
2022-07-31T22:23:29.042Z,3.58
2022-07-31T22:28:31.412Z,3.17
2022-07-31T22:33:33.297Z,3.25
2022-07-31T22:38:35.531Z,3.25
2022-07-31T22:44:10.669Z,3.50
2022-07-31T22:48:59.738Z,3.70
2022-07-31T22:54:01.588Z,4.03
2022-07-31T22:59:03.573Z,3.58
2022-07-31T23:04:05.454Z,3.70
2022-07-31T23:09:07.244Z,3.60
2022-07-31T23:14:09.089Z,3.60
2022-07-31T23:19:11.359Z,4.22
2022-07-31T23:24:13.215Z,4.43
2022-07-31T23:29:15.475Z,4.20
2022-07-31T23:34:17.352Z,3.85
2022-07-31T23:39:20.848Z,4.05
2022-07-31T23:44:25.078Z,5.20
2022-07-31T23:49:27.354Z,8.00
2022-07-31T23:54:29.284Z,7.88
2022-07-31T23:59:31.608Z,5.70
